createdAt,value
2019-02-05T00:02:27.784Z,13.70
2019-02-05T00:04:59.312Z,14.40
2019-02-05T00:07:31.287Z,12.82
2019-02-05T00:10:02.771Z,13.60
2019-02-05T00:12:34.672Z,13.40
2019-02-05T00:15:07.016Z,14.35
2019-02-05T00:17:38.393Z,14.83
2019-02-05T00:20:10.460Z,13.95
2019-02-05T00:22:42.052Z,14.73
2019-02-05T00:25:13.637Z,14.65
2019-02-05T00:27:45.260Z,16.10
2019-02-05T00:30:17.372Z,15.05
2019-02-05T00:32:49.256Z,15.63
2019-02-05T00:35:21.073Z,16.65
2019-02-05T00:37:52.676Z,16.55
2019-02-05T00:40:24.339Z,16.62
2019-02-05T00:42:56.197Z,15.85
2019-02-05T00:45:27.751Z,16.02
2019-02-05T00:47:59.086Z,15.90
2019-02-05T00:50:30.699Z,15.32
2019-02-05T00:53:01.961Z,16.35
2019-02-05T00:55:33.326Z,15.13
2019-02-05T00:58:05.070Z,15.58
2019-02-05T01:00:36.533Z,16.15
2019-02-05T01:03:08.085Z,14.87
2019-02-05T01:05:39.520Z,14.35
2019-02-05T01:08:10.964Z,14.43
2019-02-05T01:10:43.015Z,14.18
2019-02-05T01:13:14.621Z,13.95
2019-02-05T01:15:46.592Z,14.03
2019-02-05T01:18:18.218Z,14.53
2019-02-05T01:20:49.457Z,13.65
2019-02-05T01:23:20.852Z,14.35
2019-02-05T01:25:52.134Z,14.78
2019-02-05T01:28:23.649Z,14.47
2019-02-05T01:30:54.987Z,13.18
2019-02-05T01:33:26.555Z,13.90
2019-02-05T01:35:57.887Z,14.03
2019-02-05T01:38:29.124Z,14.38
2019-02-05T01:41:00.446Z,13.98
2019-02-05T01:43:33.123Z,14.00
2019-02-05T01:46:04.770Z,13.90
2019-02-05T01:48:36.224Z,14.35
2019-02-05T01:51:07.454Z,14.85
2019-02-05T01:53:38.966Z,14.33
2019-02-05T01:56:10.295Z,14.10
2019-02-05T01:58:41.679Z,14.40
2019-02-05T02:01:13.387Z,14.73
2019-02-05T02:03:44.780Z,14.20
2019-02-05T02:06:16.289Z,13.75
2019-02-05T02:08:48.004Z,13.70
2019-02-05T02:11:19.555Z,13.68
2019-02-05T02:13:51.263Z,14.05
2019-02-05T02:16:22.822Z,15.50
2019-02-05T02:18:54.324Z,15.63
2019-02-05T02:21:25.953Z,14.05
2019-02-05T02:23:57.584Z,14.70
2019-02-05T02:26:29.191Z,15.32
2019-02-05T02:29:00.955Z,15.28
2019-02-05T02:31:32.623Z,16.52
2019-02-05T02:34:04.247Z,17.05
2019-02-05T02:36:35.860Z,22.55
2019-02-05T02:39:08.799Z,17.92
2019-02-05T02:41:40.382Z,18.87
2019-02-05T02:44:11.613Z,18.87
2019-02-05T02:46:44.142Z,18.05
2019-02-05T02:49:15.678Z,17.95
2019-02-05T02:51:47.226Z,19.40
2019-02-05T02:54:18.842Z,18.48
2019-02-05T02:56:50.253Z,19.87
2019-02-05T02:59:21.791Z,18.15
2019-02-05T03:01:53.379Z,18.60
2019-02-05T03:04:24.869Z,17.32
2019-02-05T03:06:56.186Z,18.15
2019-02-05T03:09:27.918Z,20.27
2019-02-05T03:11:59.622Z,19.55
2019-02-05T03:14:31.150Z,19.92
2019-02-05T03:17:02.972Z,19.90
2019-02-05T03:19:34.623Z,20.27
2019-02-05T03:22:06.382Z,19.98
2019-02-05T03:24:37.874Z,20.17
2019-02-05T03:27:17.370Z,20.30
2019-02-05T03:29:42.688Z,19.30
2019-02-05T03:32:14.271Z,19.42
2019-02-05T03:34:45.516Z,19.30
2019-02-05T03:37:16.879Z,19.73
2019-02-05T03:39:48.281Z,21.15
2019-02-05T03:42:20.711Z,19.48
2019-02-05T03:44:52.158Z,20.32
2019-02-05T03:47:23.592Z,19.27
2019-02-05T03:49:56.449Z,20.27
2019-02-05T03:52:50.689Z,19.82
2019-02-05T03:55:57.706Z,19.65
2019-02-05T03:59:13.842Z,22.25
2019-02-05T04:02:33.670Z,21.07
2019-02-05T04:05:32.520Z,21.27
2019-02-05T04:08:25.354Z,22.95
2019-02-05T04:11:38.644Z,22.75
2019-02-05T04:14:45.781Z,21.45
2019-02-05T04:17:58.557Z,21.27
2019-02-05T04:21:16.797Z,20.35
2019-02-05T04:24:24.191Z,19.87
2019-02-05T04:27:43.734Z,20.72
2019-02-05T04:30:37.002Z,20.88
2019-02-05T04:33:35.607Z,21.12
2019-02-05T04:36:45.258Z,22.55
2019-02-05T04:39:38.582Z,22.30
2019-02-05T04:42:42.806Z,20.02
2019-02-05T04:45:51.903Z,21.37
2019-02-05T04:49:10.769Z,21.52
2019-02-05T04:52:24.321Z,20.55
2019-02-05T04:55:32.088Z,20.48
2019-02-05T04:58:31.682Z,21.15
2019-02-05T05:01:29.214Z,20.97
2019-02-05T05:04:19.520Z,21.93
2019-02-05T05:07:18.455Z,20.57
2019-02-05T05:09:58.243Z,21.55
2019-02-05T05:12:33.139Z,21.52
2019-02-05T05:15:05.530Z,22.50
2019-02-05T05:17:37.091Z,22.77
2019-02-05T05:20:11.069Z,23.22
2019-02-05T05:22:43.500Z,23.65
2019-02-05T05:25:15.143Z,22.67
2019-02-05T05:27:46.681Z,20.82
2019-02-05T05:30:19.667Z,20.82
2019-02-05T05:32:51.096Z,22.37
2019-02-05T05:35:22.751Z,21.77
2019-02-05T05:37:54.506Z,23.22
2019-02-05T05:40:26.180Z,21.85
2019-02-05T05:42:57.686Z,21.95
2019-02-05T05:45:29.060Z,22.62
2019-02-05T05:48:00.598Z,22.65
2019-02-05T05:50:32.264Z,22.32
2019-02-05T05:53:03.484Z,22.50
2019-02-05T05:55:34.868Z,23.02
2019-02-05T05:58:06.256Z,25.35
2019-02-05T06:00:38.071Z,28.65
2019-02-05T06:03:10.484Z,26.35
2019-02-05T06:05:42.181Z,22.00
2019-02-05T06:08:14.215Z,23.70
2019-02-05T06:10:45.841Z,23.18
2019-02-05T06:13:17.228Z,21.93
2019-02-05T06:15:48.611Z,22.32
2019-02-05T06:18:20.785Z,23.25
2019-02-05T06:20:52.294Z,22.30
2019-02-05T06:23:23.654Z,23.05
2019-02-05T06:25:55.390Z,22.90
2019-02-05T06:28:34.256Z,22.10
2019-02-05T06:31:00.179Z,23.83
2019-02-05T06:33:31.707Z,24.10
2019-02-05T06:36:03.521Z,24.37
2019-02-05T06:38:34.810Z,27.65
2019-02-05T06:41:06.607Z,23.95
2019-02-05T06:43:38.266Z,24.67
2019-02-05T06:46:09.791Z,24.18
2019-02-05T06:48:41.117Z,22.13
2019-02-05T06:51:12.726Z,21.82
2019-02-05T06:53:44.220Z,22.85
2019-02-05T06:56:15.904Z,22.25
2019-02-05T06:58:47.161Z,21.27
2019-02-05T07:01:18.404Z,21.23
2019-02-05T07:03:49.763Z,23.38
2019-02-05T07:06:21.139Z,22.15
2019-02-05T07:08:52.557Z,23.45
2019-02-05T07:11:25.311Z,24.32
2019-02-05T07:13:58.274Z,23.18
2019-02-05T07:16:29.790Z,24.00
2019-02-05T07:19:01.405Z,24.87
2019-02-05T07:21:33.140Z,24.35
2019-02-05T07:24:04.933Z,23.77
2019-02-05T07:26:36.677Z,23.62
2019-02-05T07:29:08.693Z,24.65
2019-02-05T07:31:40.381Z,24.65
2019-02-05T07:34:11.835Z,26.07
2019-02-05T07:36:43.784Z,22.32
2019-02-05T07:39:15.287Z,23.30
2019-02-05T07:41:46.847Z,22.98
2019-02-05T07:44:18.376Z,21.82
2019-02-05T07:46:50.107Z,21.95
2019-02-05T07:49:21.798Z,25.92
2019-02-05T07:51:53.641Z,24.77
2019-02-05T07:54:25.255Z,26.42
2019-02-05T07:56:57.090Z,25.97
2019-02-05T07:59:28.722Z,25.88
2019-02-05T08:02:00.525Z,24.37
2019-02-05T08:04:31.937Z,22.98
2019-02-05T08:07:03.704Z,23.67
2019-02-05T08:09:35.355Z,22.65
2019-02-05T08:12:07.041Z,25.37
2019-02-05T08:14:38.881Z,23.73
2019-02-05T08:17:10.509Z,25.25
2019-02-05T08:19:42.011Z,23.67
2019-02-05T08:22:13.996Z,22.22
2019-02-05T08:24:45.583Z,22.73
2019-02-05T08:27:17.197Z,23.50
2019-02-05T08:29:48.733Z,22.30
2019-02-05T08:32:20.379Z,23.05
2019-02-05T08:34:51.908Z,21.77
2019-02-05T08:37:23.717Z,23.07
2019-02-05T08:39:55.549Z,22.50
2019-02-05T08:42:27.345Z,22.13
2019-02-05T08:44:59.136Z,22.17
2019-02-05T08:47:30.827Z,22.10
2019-02-05T08:50:03.558Z,21.52
2019-02-05T08:52:35.112Z,21.45
2019-02-05T08:55:08.248Z,20.97
2019-02-05T08:57:39.802Z,20.80
2019-02-05T09:00:20.742Z,22.62
2019-02-05T09:02:52.857Z,20.77
2019-02-05T09:05:24.476Z,23.22
2019-02-05T09:07:56.011Z,22.73
2019-02-05T09:10:34.880Z,22.85
2019-02-05T09:13:07.037Z,22.87
2019-02-05T09:15:38.859Z,21.97
2019-02-05T09:18:10.915Z,23.92
2019-02-05T09:20:42.359Z,25.12
2019-02-05T09:23:14.506Z,24.65
2019-02-05T09:25:47.003Z,22.45
2019-02-05T09:28:18.574Z,23.98
2019-02-05T09:30:50.242Z,23.98
2019-02-05T09:33:21.739Z,23.83
2019-02-05T09:35:53.153Z,26.33
2019-02-05T09:38:24.497Z,28.23
2019-02-05T09:40:55.998Z,26.68
2019-02-05T09:43:27.475Z,27.58
2019-02-05T09:45:58.939Z,45.95
2019-02-05T09:48:30.235Z,29.45
2019-02-05T09:51:01.790Z,30.15
2019-02-05T09:53:33.312Z,28.57
2019-02-05T09:56:04.949Z,28.98
2019-02-05T09:58:36.579Z,30.23
2019-02-05T10:01:08.497Z,29.15
2019-02-05T10:03:40.120Z,31.02
2019-02-05T10:06:12.673Z,31.52
2019-02-05T10:08:45.490Z,31.35
2019-02-05T10:11:16.978Z,31.90
2019-02-05T10:13:48.856Z,30.30
2019-02-05T10:16:20.597Z,33.88
2019-02-05T10:18:52.048Z,32.15
2019-02-05T10:21:23.838Z,32.45
2019-02-05T10:23:55.526Z,30.32
2019-02-05T10:26:27.475Z,30.48
2019-02-05T10:28:59.201Z,31.15
2019-02-05T10:31:30.786Z,30.68
2019-02-05T10:34:02.515Z,31.85
2019-02-05T10:36:34.474Z,31.80
2019-02-05T10:39:09.557Z,32.85
2019-02-05T10:41:41.511Z,33.78
2019-02-05T10:44:13.167Z,36.85
2019-02-05T10:46:44.811Z,35.45
2019-02-05T10:49:16.528Z,35.03
2019-02-05T10:51:47.855Z,38.90
2019-02-05T10:54:19.269Z,40.10
2019-02-05T10:56:50.524Z,40.87
2019-02-05T10:59:21.708Z,36.90
2019-02-05T11:01:53.033Z,39.83
2019-02-05T11:18:28.065Z,29.07
2019-02-05T11:20:59.240Z,27.23
2019-02-05T11:26:19.595Z,23.30
2019-02-05T11:28:51.676Z,23.20
2019-02-05T11:31:23.050Z,29.33
2019-02-05T11:36:42.745Z,25.40
2019-02-05T11:39:16.697Z,21.93
2019-02-05T11:41:48.043Z,24.23
2019-02-05T11:44:19.111Z,21.10
2019-02-05T11:46:50.404Z,23.80
2019-02-05T11:49:21.828Z,23.23
2019-02-05T11:51:53.240Z,23.03
2019-02-05T11:54:24.660Z,23.13
2019-02-05T11:56:55.853Z,23.03
2019-02-05T11:59:26.954Z,23.53
2019-02-05T12:01:58.082Z,20.93
2019-02-05T12:04:30.044Z,22.43
2019-02-05T12:07:01.415Z,22.40
2019-02-05T12:09:32.761Z,21.07
2019-02-05T12:12:04.214Z,20.33
2019-02-05T12:14:35.470Z,21.37
2019-02-05T12:17:06.824Z,19.10
2019-02-05T12:19:38.258Z,14.50
2019-02-05T12:22:09.413Z,17.40
2019-02-05T12:24:41.059Z,17.93
2019-02-05T12:27:12.314Z,17.53
2019-02-05T12:29:43.587Z,17.33
2019-02-05T12:32:14.815Z,15.90
2019-02-05T12:34:46.048Z,20.77
2019-02-05T12:37:16.972Z,17.27
2019-02-05T12:39:48.230Z,18.43
2019-02-05T12:42:19.506Z,17.07
2019-02-05T12:44:50.688Z,17.40
2019-02-05T12:47:22.169Z,17.27
2019-02-05T12:49:53.509Z,17.37
2019-02-05T12:52:24.926Z,16.60
2019-02-05T12:54:56.251Z,15.73
2019-02-05T12:57:27.727Z,15.93
2019-02-05T12:59:59.340Z,14.53
2019-02-05T13:02:30.343Z,15.23
2019-02-05T13:05:01.875Z,15.07
2019-02-05T13:07:33.210Z,14.13
2019-02-05T13:10:05.205Z,14.30
2019-02-05T13:12:36.667Z,14.57
2019-02-05T13:15:08.323Z,14.00
2019-02-05T13:17:39.419Z,14.83
2019-02-05T13:20:14.352Z,13.73
2019-02-05T13:22:46.850Z,13.43
2019-02-05T13:25:20.715Z,13.23
2019-02-05T13:27:51.988Z,12.60
2019-02-05T13:30:25.299Z,11.43
2019-02-05T13:32:56.814Z,14.50
2019-02-05T13:35:28.248Z,14.07
2019-02-05T13:38:00.001Z,12.30
2019-02-05T13:40:31.696Z,12.10
2019-02-05T13:43:03.102Z,11.87
2019-02-05T13:45:35.273Z,13.00
2019-02-05T13:48:07.498Z,12.50
2019-02-05T13:50:38.947Z,12.60
2019-02-05T13:53:09.993Z,11.57
2019-02-05T13:55:45.653Z,12.10
2019-02-05T13:58:17.087Z,13.30
2019-02-05T14:00:50.275Z,13.50
2019-02-05T14:03:21.883Z,13.27
2019-02-05T14:05:53.103Z,12.73
2019-02-05T14:08:24.187Z,12.80
2019-02-05T14:10:55.298Z,13.23
2019-02-05T14:13:26.366Z,12.70
2019-02-05T14:15:57.424Z,12.73
2019-02-05T14:18:28.696Z,10.25
2019-02-05T14:20:59.883Z,12.28
2019-02-05T14:23:31.067Z,13.20
2019-02-05T14:26:02.528Z,13.43
2019-02-05T14:28:34.216Z,13.58
2019-02-05T14:31:05.830Z,13.10
2019-02-05T14:33:37.172Z,12.45
2019-02-05T14:36:08.619Z,12.28
2019-02-05T14:38:40.399Z,11.80
2019-02-05T14:41:11.877Z,12.60
2019-02-05T14:43:43.196Z,11.97
2019-02-05T14:46:14.563Z,11.68
2019-02-05T14:48:45.908Z,12.50
2019-02-05T14:51:17.393Z,12.68
2019-02-05T14:53:49.322Z,12.55
2019-02-05T14:56:20.939Z,12.60
2019-02-05T14:58:52.697Z,12.63
2019-02-05T15:01:24.176Z,12.65
2019-02-05T15:03:55.590Z,12.40
2019-02-05T15:06:27.377Z,11.55
2019-02-05T15:08:58.881Z,13.85
2019-02-05T15:11:30.092Z,13.72
2019-02-05T15:14:01.541Z,13.38
2019-02-05T15:16:32.864Z,13.45
2019-02-05T15:19:04.457Z,13.18
2019-02-05T15:21:35.767Z,12.98
2019-02-05T15:24:07.150Z,12.82
2019-02-05T15:26:38.332Z,14.47
2019-02-05T15:29:09.777Z,14.15
2019-02-05T15:31:41.495Z,14.50
2019-02-05T15:34:27.114Z,12.30
2019-02-05T15:36:58.467Z,12.78
2019-02-05T15:39:30.159Z,13.65
2019-02-05T15:42:02.078Z,10.93
2019-02-05T15:44:33.532Z,13.08
2019-02-05T15:47:04.848Z,13.03
2019-02-05T15:49:36.372Z,14.40
2019-02-05T15:52:08.040Z,15.05
2019-02-05T15:54:39.759Z,15.70
2019-02-05T15:57:11.167Z,15.03
2019-02-05T15:59:44.813Z,14.35
2019-02-05T16:02:16.390Z,15.95
2019-02-05T16:04:47.938Z,15.78
2019-02-05T16:07:19.395Z,16.20
2019-02-05T16:09:50.917Z,16.52
2019-02-05T16:12:22.543Z,15.48
2019-02-05T16:14:54.470Z,14.07
2019-02-05T16:17:25.954Z,13.88
2019-02-05T16:19:57.852Z,13.08
2019-02-05T16:22:29.182Z,13.83
2019-02-05T16:25:00.984Z,20.80
2019-02-05T16:27:32.558Z,13.38
2019-02-05T16:30:05.845Z,24.00
2019-02-05T16:32:37.919Z,12.80
2019-02-05T16:35:09.937Z,19.27
2019-02-05T16:37:41.511Z,13.08
2019-02-05T16:40:16.696Z,12.37
2019-02-05T16:42:48.363Z,13.88
2019-02-05T16:45:22.778Z,11.95
2019-02-05T16:47:54.335Z,13.08
2019-02-05T16:50:31.939Z,12.50
2019-02-05T16:53:03.685Z,12.98
2019-02-05T16:55:35.208Z,12.47
2019-02-05T16:58:07.333Z,13.53
2019-02-05T17:00:39.375Z,12.63
2019-02-05T17:03:10.759Z,12.40
2019-02-05T17:05:42.225Z,12.58
2019-02-05T17:08:13.885Z,14.43
2019-02-05T17:10:45.538Z,13.30
2019-02-05T17:13:17.229Z,14.53
2019-02-05T17:15:49.004Z,12.73
2019-02-05T17:18:23.697Z,12.55
2019-02-05T17:20:53.697Z,12.13
2019-02-05T17:23:25.076Z,12.33
2019-02-05T17:25:56.429Z,13.45
2019-02-05T17:28:27.857Z,12.73
2019-02-05T17:30:59.259Z,12.93
2019-02-05T17:33:30.947Z,11.55
2019-02-05T17:36:02.297Z,11.75
2019-02-05T17:38:33.742Z,11.70
2019-02-05T17:41:06.776Z,11.28
2019-02-05T17:43:38.489Z,12.58
2019-02-05T17:46:10.115Z,11.90
2019-02-05T17:48:41.642Z,10.82
2019-02-05T17:51:13.265Z,11.10
2019-02-05T17:53:44.690Z,11.57
2019-02-05T17:56:15.975Z,12.75
2019-02-05T17:58:47.892Z,11.78
2019-02-05T18:01:20.026Z,13.10
2019-02-05T18:03:51.625Z,13.35
2019-02-05T18:06:22.982Z,12.47
2019-02-05T18:08:54.644Z,12.60
2019-02-05T18:11:26.649Z,13.40
2019-02-05T18:13:58.037Z,11.90
2019-02-05T18:16:29.267Z,12.90
2019-02-05T18:19:00.809Z,11.75
2019-02-05T18:21:31.956Z,13.32
2019-02-05T18:24:03.672Z,11.28
2019-02-05T18:26:35.378Z,13.83
2019-02-05T18:29:07.661Z,13.83
2019-02-05T18:31:39.414Z,12.50
2019-02-05T18:34:11.118Z,13.30
2019-02-05T18:36:42.729Z,13.85
2019-02-05T18:39:14.262Z,11.68
2019-02-05T18:41:45.804Z,11.90
2019-02-05T18:44:17.115Z,11.28
2019-02-05T18:46:48.353Z,12.35
2019-02-05T18:49:19.902Z,12.00
2019-02-05T18:51:51.229Z,11.05
2019-02-05T18:54:22.458Z,10.98
2019-02-05T18:56:53.818Z,10.82
2019-02-05T18:59:25.215Z,9.83
2019-02-05T19:01:57.233Z,10.32
2019-02-05T19:04:28.808Z,9.75
2019-02-05T19:07:00.211Z,11.22
2019-02-05T19:09:31.933Z,9.38
2019-02-05T19:12:04.982Z,10.45
2019-02-05T19:14:36.657Z,10.08
2019-02-05T19:17:08.173Z,10.20
2019-02-05T19:19:39.714Z,9.65
2019-02-05T19:22:11.749Z,9.35
2019-02-05T19:24:48.523Z,9.50
2019-02-05T19:27:20.239Z,9.35
2019-02-05T19:29:51.694Z,10.18
2019-02-05T19:32:26.711Z,8.58
2019-02-05T19:34:58.479Z,8.03
2019-02-05T19:37:29.942Z,8.73
2019-02-05T19:40:01.438Z,8.65
2019-02-05T19:42:33.126Z,8.95
2019-02-05T19:45:17.477Z,11.03
2019-02-05T19:47:49.259Z,9.75
2019-02-05T19:50:20.469Z,9.70
2019-02-05T19:52:51.987Z,9.35
2019-02-05T19:55:23.712Z,8.98
2019-02-05T19:57:55.768Z,8.78
2019-02-05T20:00:27.472Z,8.93
2019-02-05T20:02:58.860Z,9.05
2019-02-05T20:05:30.280Z,8.88
2019-02-05T20:08:01.485Z,9.43
2019-02-05T20:10:33.163Z,8.35
2019-02-05T20:13:04.863Z,8.88
2019-02-05T20:15:36.194Z,8.00
2019-02-05T20:18:07.737Z,8.23
2019-02-05T20:20:38.952Z,9.35
2019-02-05T20:23:11.275Z,8.83
2019-02-05T20:25:42.518Z,9.15
2019-02-05T20:28:14.083Z,9.83
2019-02-05T20:30:45.555Z,8.83
2019-02-05T20:33:17.497Z,10.03
2019-02-05T20:35:49.173Z,9.65
2019-02-05T20:38:20.788Z,9.43
2019-02-05T20:40:52.358Z,8.63
2019-02-05T20:43:23.642Z,8.50
2019-02-05T20:45:55.018Z,7.92
2019-02-05T20:48:26.291Z,7.40
2019-02-05T20:50:57.686Z,8.73
2019-02-05T20:53:28.978Z,7.37
2019-02-05T20:56:00.647Z,7.62
2019-02-05T20:58:31.968Z,8.70
2019-02-05T21:01:03.972Z,9.55
2019-02-05T21:03:35.392Z,15.70
2019-02-05T21:06:07.424Z,8.40
2019-02-05T21:08:39.019Z,8.60
2019-02-05T21:11:10.788Z,8.70
2019-02-05T21:13:42.146Z,8.05
2019-02-05T21:16:13.550Z,6.50
2019-02-05T21:18:44.887Z,7.42
2019-02-05T21:21:16.122Z,7.53
2019-02-05T21:23:47.513Z,7.17
2019-02-05T21:26:18.808Z,7.35
2019-02-05T21:28:50.512Z,7.47
2019-02-05T21:31:22.041Z,6.10
2019-02-05T21:33:53.615Z,7.20
2019-02-05T21:36:24.963Z,7.10
2019-02-05T21:38:56.186Z,6.85
2019-02-05T21:41:27.954Z,6.05
2019-02-05T21:43:59.182Z,6.45
2019-02-05T21:46:30.429Z,6.62
2019-02-05T21:49:01.788Z,6.55
2019-02-05T21:54:07.008Z,5.87
2019-02-05T21:56:38.481Z,7.00
2019-02-05T21:59:09.930Z,8.03
2019-02-05T22:01:42.536Z,6.58
2019-02-05T22:04:13.963Z,7.72
2019-02-05T22:06:45.697Z,7.15
2019-02-05T22:09:17.610Z,7.92
2019-02-05T22:11:48.992Z,7.67
2019-02-05T22:14:20.453Z,7.60
2019-02-05T22:16:51.648Z,8.23
2019-02-05T22:19:23.309Z,7.00
2019-02-05T22:21:54.690Z,6.60
2019-02-05T22:24:26.341Z,6.83
2019-02-05T22:26:57.598Z,6.42
2019-02-05T22:29:28.857Z,6.92
2019-02-05T22:32:00.138Z,6.75
2019-02-05T22:34:38.857Z,7.05
2019-02-05T22:37:04.687Z,7.17
2019-02-05T22:39:36.227Z,7.15
2019-02-05T22:42:07.692Z,6.67
2019-02-05T22:44:39.016Z,6.12
2019-02-05T22:47:10.380Z,6.70
2019-02-05T22:49:41.579Z,7.17
2019-02-05T22:52:13.202Z,6.85
2019-02-05T22:54:44.773Z,8.33
2019-02-05T22:57:16.149Z,8.13
2019-02-05T22:59:47.555Z,6.70
2019-02-05T23:02:19.631Z,7.37
2019-02-05T23:05:46.336Z,7.72
2019-02-05T23:08:17.623Z,7.50
2019-02-05T23:11:19.726Z,5.97
2019-02-05T23:13:51.227Z,7.08
2019-02-05T23:16:22.774Z,6.45
2019-02-05T23:18:54.416Z,7.30
2019-02-05T23:21:25.937Z,6.97
2019-02-05T23:23:57.636Z,6.10
2019-02-05T23:26:29.379Z,6.22
2019-02-05T23:29:01.041Z,6.30
2019-02-05T23:31:32.525Z,6.15
2019-02-05T23:34:04.126Z,6.10
2019-02-05T23:36:35.692Z,6.53
2019-02-05T23:39:07.228Z,7.40
2019-02-05T23:41:40.050Z,5.22
2019-02-05T23:44:11.535Z,5.10
2019-02-05T23:46:43.068Z,4.35
2019-02-05T23:49:14.579Z,5.47
2019-02-05T23:51:46.230Z,5.00
2019-02-05T23:54:17.761Z,4.25
2019-02-05T23:56:48.981Z,5.60
2019-02-05T23:59:20.350Z,5.12
